Solsberry, Indiana
Current Conditions -  °F | °C
As of 10:53 AM on Wednesday 28 Jan 2015 (Local Time) from KBMG Reporting Station
Clear Clear  
Wind Chill: -9°   Ceiling: Unl
Heat Index: -3°   Visibility: 10mi
Dew Point: -9°   Wind: 14mph
Humidity: 63%   Direction: 150°SSE
Pressure: 30.33"   Gusts: NA
Location:  39.08°N, 86.76°W
Report Text: KBMG 281553Z 15012KT 10SM CLR M03/M09 A3033 RMK AO2 SLP280 T10281089
Loading
Personal Weather Stations






























Interactive Weather Map New forecast layout! Learn more

10-Day Weather Forecast

Advertisements
Track Severe Weather on mobile